createdAt,value
2018-03-04T00:01:39.723Z,-6.50
2018-03-04T00:04:06.777Z,-6.70
2018-03-04T00:06:33.105Z,-6.70
2018-03-04T00:09:00.131Z,-6.60
2018-03-04T00:11:26.461Z,-6.70
2018-03-04T00:13:52.823Z,-6.60
2018-03-04T00:16:19.142Z,-6.60
2018-03-04T00:18:46.184Z,-6.50
2018-03-04T00:21:13.228Z,-6.50
2018-03-04T00:23:40.276Z,-6.50
2018-03-04T00:26:07.332Z,-6.40
2018-03-04T00:28:33.639Z,-6.40
2018-03-04T00:30:59.900Z,-6.50
2018-03-04T00:33:26.931Z,-6.60
2018-03-04T00:35:54.013Z,-6.60
2018-03-04T00:38:20.311Z,-6.60
2018-03-04T00:40:46.616Z,-6.60
2018-03-04T00:43:12.915Z,-6.60
2018-03-04T00:45:39.207Z,-6.50
2018-03-04T00:48:06.233Z,-6.60
2018-03-04T00:50:33.950Z,-6.60
2018-03-04T00:53:00.208Z,-6.60
2018-03-04T00:55:26.472Z,-6.50
2018-03-04T00:57:53.527Z,-6.50
2018-03-04T01:00:19.839Z,-6.60
2018-03-04T01:02:46.100Z,-6.50
2018-03-04T01:05:12.412Z,-6.50
2018-03-04T01:07:39.466Z,-6.30
2018-03-04T01:10:05.744Z,-6.30
2018-03-04T01:12:32.041Z,-6.30
2018-03-04T01:14:58.332Z,-6.20
2018-03-04T01:17:24.592Z,-6.20
2018-03-04T01:19:51.639Z,-6.10
2018-03-04T01:22:18.656Z,-6.10
2018-03-04T01:24:44.936Z,-6.10
2018-03-04T01:27:11.233Z,-6.00
2018-03-04T01:29:38.241Z,-6.10
2018-03-04T01:32:04.493Z,-6.10
2018-03-04T01:34:30.793Z,-6.10
2018-03-04T01:36:57.061Z,-6.10
2018-03-04T01:39:23.337Z,-6.10
2018-03-04T01:41:49.600Z,-6.10
2018-03-04T01:44:16.752Z,-6.10
2018-03-04T01:46:43.011Z,-6.10
2018-03-04T01:49:09.286Z,-6.00
2018-03-04T01:51:50.934Z,-6.00
2018-03-04T01:54:27.916Z,-6.10
2018-03-04T01:56:55.017Z,-6.00
2018-03-04T01:59:21.329Z,-6.10
2018-03-04T02:01:47.682Z,-6.10
2018-03-04T02:04:13.978Z,-6.10
2018-03-04T02:06:40.269Z,-6.00
2018-03-04T02:09:06.557Z,-6.00
2018-03-04T02:11:32.896Z,-5.90
2018-03-04T02:14:00.137Z,-6.00
2018-03-04T02:16:26.378Z,-6.00
2018-03-04T02:18:52.694Z,-6.00
2018-03-04T02:21:18.947Z,-6.00
2018-03-04T02:23:45.232Z,-5.90
2018-03-04T02:26:12.266Z,-5.90
2018-03-04T02:28:39.293Z,-5.90
2018-03-04T02:31:05.602Z,-5.90
2018-03-04T02:33:31.919Z,-5.90
2018-03-04T02:35:58.293Z,-5.90
2018-03-04T02:38:24.580Z,-5.90
2018-03-04T02:40:50.885Z,-5.90
2018-03-04T02:43:17.141Z,-5.90
2018-03-04T02:45:43.438Z,-5.80
2018-03-04T02:48:10.426Z,-5.70
2018-03-04T02:50:36.692Z,-5.80
2018-03-04T02:53:02.957Z,-5.80
2018-03-04T02:55:29.249Z,-5.70
2018-03-04T02:57:55.574Z,-5.70
2018-03-04T03:00:21.892Z,-5.70
2018-03-04T03:02:48.188Z,-5.70
2018-03-04T03:05:14.528Z,-5.60
2018-03-04T03:07:40.859Z,-5.60
2018-03-04T03:10:07.216Z,-5.60
2018-03-04T03:12:33.551Z,-5.70
2018-03-04T03:14:59.829Z,-5.70
2018-03-04T03:17:26.128Z,-5.60
2018-03-04T03:19:52.415Z,-5.70
2018-03-04T03:22:18.722Z,-5.60
2018-03-04T03:24:45.038Z,-5.60
2018-03-04T03:27:12.112Z,-5.70
2018-03-04T03:29:38.419Z,-5.70
2018-03-04T03:32:05.984Z,-5.50
2018-03-04T03:34:33.011Z,-5.50
2018-03-04T03:39:44.311Z,-5.40
2018-03-04T03:42:10.613Z,-5.30
2018-03-04T03:44:38.026Z,-5.30
2018-03-04T03:47:04.310Z,-5.10
2018-03-04T03:49:30.584Z,-5.20
2018-03-04T03:51:57.655Z,-5.10
2018-03-04T03:54:23.929Z,-5.10
2018-03-04T03:56:50.202Z,-4.90
2018-03-04T03:59:16.485Z,-4.80
2018-03-04T04:01:42.744Z,-4.70
2018-03-04T04:04:09.800Z,-4.80
2018-03-04T04:06:36.831Z,-4.90
2018-03-04T04:09:03.861Z,-4.70
2018-03-04T04:11:30.143Z,-4.70
2018-03-04T04:13:56.449Z,-4.70
2018-03-04T04:16:23.451Z,-4.60
2018-03-04T04:18:49.823Z,-4.60
2018-03-04T04:21:16.923Z,-4.60
2018-03-04T04:27:18.580Z,-4.50
2018-03-04T04:29:44.837Z,-4.50
2018-03-04T04:32:12.131Z,-4.30
2018-03-04T04:34:39.969Z,-4.30
2018-03-04T04:37:06.265Z,-4.30
2018-03-04T04:39:32.561Z,-4.40
2018-03-04T04:41:59.623Z,-4.40
2018-03-04T04:44:26.656Z,-4.50
2018-03-04T04:46:53.694Z,-4.50
2018-03-04T04:49:20.004Z,-4.50
2018-03-04T04:51:46.261Z,-4.40
2018-03-04T04:54:13.317Z,-4.40
2018-03-04T04:56:40.324Z,-4.40
2018-03-04T04:59:06.678Z,-4.40
2018-03-04T05:01:33.009Z,-4.50
2018-03-04T05:04:00.772Z,-4.40
2018-03-04T05:06:27.065Z,-4.40
2018-03-04T05:08:53.389Z,-4.40
2018-03-04T05:11:19.710Z,-4.40
2018-03-04T05:13:45.977Z,-4.40
2018-03-04T05:16:13.255Z,-4.30
2018-03-04T05:18:39.612Z,-4.30
2018-03-04T05:21:05.881Z,-4.40
2018-03-04T05:23:32.161Z,-4.30
2018-03-04T05:25:59.201Z,-4.30
2018-03-04T05:28:26.247Z,-4.30
2018-03-04T05:30:52.614Z,-4.30
2018-03-04T05:33:18.887Z,-4.20
2018-03-04T05:35:45.266Z,-4.20
2018-03-04T05:38:11.550Z,-4.30
2018-03-04T05:40:37.818Z,-4.30
2018-03-04T05:43:04.852Z,-4.20
2018-03-04T05:45:31.914Z,-4.10
2018-03-04T05:47:58.970Z,-4.30
2018-03-04T05:50:25.286Z,-4.30
2018-03-04T05:52:52.352Z,-4.20
2018-03-04T05:55:18.667Z,-4.20
2018-03-04T05:57:44.954Z,-4.10
2018-03-04T06:00:11.282Z,-4.10
2018-03-04T06:02:37.625Z,-4.10
2018-03-04T06:05:03.914Z,-4.00
2018-03-04T06:07:30.553Z,-3.80
2018-03-04T06:09:58.816Z,-3.80
2018-03-04T06:12:25.119Z,-3.70
2018-03-04T06:14:51.420Z,-3.70
2018-03-04T06:17:17.731Z,-3.80
2018-03-04T06:19:44.060Z,-3.70
2018-03-04T06:22:10.375Z,-3.70
2018-03-04T06:24:36.716Z,-3.60
2018-03-04T06:27:03.155Z,-3.70
2018-03-04T06:29:29.428Z,-3.60
2018-03-04T06:31:55.713Z,-3.50
2018-03-04T06:34:22.034Z,-3.50
2018-03-04T06:36:48.318Z,-3.50
2018-03-04T06:39:14.818Z,-3.50
2018-03-04T06:41:42.168Z,-3.40
2018-03-04T06:44:08.437Z,-3.50
2018-03-04T06:46:34.718Z,-3.50
2018-03-04T06:49:01.152Z,-3.50
2018-03-04T06:51:27.608Z,-3.30
2018-03-04T06:53:53.878Z,-3.20
2018-03-04T06:56:20.174Z,-3.30
2018-03-04T06:58:46.518Z,-3.00
2018-03-04T07:01:12.834Z,-2.90
2018-03-04T07:03:39.214Z,-2.90
2018-03-04T07:06:06.288Z,-3.00
2018-03-04T07:08:32.649Z,-2.90
2018-03-04T07:10:58.973Z,-2.80
2018-03-04T07:13:25.221Z,-2.70
2018-03-04T07:15:51.531Z,-2.80
2018-03-04T07:18:18.717Z,-2.70
2018-03-04T07:20:45.088Z,-2.50
2018-03-04T07:23:11.377Z,-2.50
2018-03-04T07:25:37.681Z,-2.40
2018-03-04T07:28:03.981Z,-2.40
2018-03-04T07:30:30.310Z,-2.40
2018-03-04T07:32:56.578Z,-2.30
2018-03-04T07:35:22.853Z,-2.30
2018-03-04T07:37:49.849Z,-2.00
2018-03-04T07:40:16.136Z,-2.00
2018-03-04T07:42:42.500Z,-1.80
2018-03-04T07:45:08.903Z,-1.70
2018-03-04T07:47:35.994Z,-1.80
2018-03-04T07:50:02.473Z,-1.80
2018-03-04T07:52:29.525Z,-1.50
2018-03-04T07:54:56.535Z,-1.00
2018-03-04T07:57:22.794Z,-1.10
2018-03-04T07:59:49.816Z,-1.30
2018-03-04T08:02:16.117Z,-1.40
2018-03-04T08:04:42.429Z,-1.50
2018-03-04T08:07:08.697Z,-1.50
2018-03-04T08:09:34.950Z,-1.40
2018-03-04T08:12:01.267Z,-1.20
2018-03-04T08:14:27.549Z,-1.10
2018-03-04T08:16:53.848Z,-1.40
2018-03-04T08:19:20.145Z,-1.10
2018-03-04T08:21:46.460Z,-0.80
2018-03-04T08:24:12.723Z,-0.60
2018-03-04T08:26:57.740Z,-0.20
2018-03-04T08:29:24.044Z,0.00
2018-03-04T08:31:51.068Z,0.30
2018-03-04T08:34:17.359Z,0.30
2018-03-04T08:36:43.721Z,0.50
2018-03-04T08:39:10.060Z,0.30
2018-03-04T08:41:36.451Z,0.20
2018-03-04T08:44:09.854Z,0.50
2018-03-04T08:46:36.134Z,0.70
2018-03-04T08:49:02.396Z,0.60
2018-03-04T08:51:28.654Z,0.60
2018-03-04T08:53:54.920Z,0.40
2018-03-04T08:56:21.501Z,0.60
2018-03-04T08:58:47.854Z,1.00
2018-03-04T09:01:14.837Z,1.20
2018-03-04T09:03:41.837Z,1.40
2018-03-04T09:06:08.155Z,1.30
2018-03-04T09:08:34.413Z,1.40
2018-03-04T09:11:00.718Z,1.80
2018-03-04T09:13:26.948Z,1.80
2018-03-04T09:15:53.277Z,2.10
2018-03-04T09:18:19.537Z,2.40
2018-03-04T09:20:45.853Z,2.50
2018-03-04T09:23:12.149Z,2.70
2018-03-04T09:25:39.162Z,2.80
2018-03-04T09:28:05.577Z,2.80
2018-03-04T09:30:31.874Z,3.30
2018-03-04T09:32:58.139Z,3.30
2018-03-04T09:35:24.546Z,3.60
2018-03-04T09:37:50.883Z,3.60
2018-03-04T09:40:17.225Z,3.40
2018-03-04T09:42:43.810Z,3.80
2018-03-04T09:45:10.136Z,4.30
2018-03-04T09:47:36.399Z,4.50
2018-03-04T09:50:02.731Z,4.60
2018-03-04T09:52:28.997Z,4.60
2018-03-04T09:54:55.324Z,4.70
2018-03-04T09:57:21.620Z,4.70
2018-03-04T09:59:47.918Z,5.00
2018-03-04T10:02:14.384Z,5.10
2018-03-04T10:04:47.712Z,5.10
2018-03-04T10:07:14.382Z,5.30
2018-03-04T10:09:41.392Z,5.40
2018-03-04T10:12:07.965Z,5.30
2018-03-04T10:14:35.051Z,4.80
2018-03-04T10:17:01.380Z,4.80
2018-03-04T10:19:27.658Z,5.00
2018-03-04T10:21:53.930Z,5.50
2018-03-04T10:24:20.953Z,5.80
2018-03-04T10:26:47.263Z,5.80
2018-03-04T10:29:13.615Z,6.10
2018-03-04T10:31:41.401Z,5.90
2018-03-04T10:34:08.748Z,6.00
2018-03-04T10:36:36.111Z,6.60
2018-03-04T10:39:03.220Z,7.10
2018-03-04T10:41:37.600Z,7.00
2018-03-04T10:44:03.953Z,7.30
2018-03-04T10:46:30.247Z,7.30
2018-03-04T10:48:57.257Z,8.10
2018-03-04T10:51:23.603Z,8.10
2018-03-04T10:53:49.908Z,7.60
2018-03-04T10:56:16.231Z,7.70
2018-03-04T10:58:42.595Z,7.60
2018-03-04T11:01:10.941Z,7.80
2018-03-04T11:03:37.360Z,7.70
2018-03-04T11:06:03.672Z,7.50
2018-03-04T11:08:30.671Z,7.40
2018-03-04T11:10:59.867Z,7.70
2018-03-04T11:13:26.204Z,7.70
2018-03-04T11:15:52.565Z,7.30
2018-03-04T11:18:19.626Z,7.60
2018-03-04T11:20:46.000Z,7.60
2018-03-04T11:23:12.519Z,7.60
2018-03-04T11:25:38.833Z,7.80
2018-03-04T11:28:05.191Z,8.00
2018-03-04T11:30:31.492Z,7.80
2018-03-04T11:32:58.062Z,7.80
2018-03-04T11:35:25.517Z,7.70
2018-03-04T11:37:51.895Z,7.80
2018-03-04T11:40:19.006Z,8.00
2018-03-04T11:42:45.352Z,8.00
2018-03-04T11:45:11.734Z,7.90
2018-03-04T11:47:38.096Z,7.50
2018-03-04T11:50:04.517Z,7.40
2018-03-04T11:52:30.826Z,8.00
2018-03-04T11:54:57.166Z,8.70
2018-03-04T11:57:23.496Z,10.20
2018-03-04T11:59:49.860Z,11.40
2018-03-04T12:02:16.162Z,12.80
2018-03-04T12:04:42.496Z,14.10
2018-03-04T12:07:08.943Z,15.10
2018-03-04T12:09:36.373Z,13.80
2018-03-04T12:12:02.806Z,14.70
2018-03-04T12:14:31.213Z,16.10
2018-03-04T12:16:57.535Z,17.80
2018-03-04T12:19:23.895Z,18.60
2018-03-04T12:21:50.310Z,17.30
2018-03-04T12:24:16.614Z,19.50
2018-03-04T12:26:42.954Z,19.10
2018-03-04T12:29:09.280Z,18.70
2018-03-04T12:31:35.632Z,17.90
2018-03-04T12:34:01.961Z,18.70
2018-03-04T12:36:28.296Z,17.50
2018-03-04T12:38:54.582Z,16.50
2018-03-04T12:41:21.656Z,16.60
2018-03-04T12:43:48.029Z,16.60
2018-03-04T12:46:15.192Z,18.70
2018-03-04T12:48:41.564Z,18.60
2018-03-04T12:51:07.981Z,17.20
2018-03-04T12:53:35.058Z,16.30
2018-03-04T12:56:03.477Z,16.30
2018-03-04T12:58:29.863Z,14.80
2018-03-04T13:00:56.229Z,15.70
2018-03-04T13:03:22.713Z,17.80
2018-03-04T13:05:51.850Z,17.60
2018-03-04T13:08:22.564Z,17.60
2018-03-04T13:10:52.912Z,18.30
2018-03-04T13:13:20.283Z,19.70
2018-03-04T13:15:46.740Z,18.80
2018-03-04T13:18:13.926Z,21.00
2018-03-04T13:20:40.319Z,21.00
2018-03-04T13:23:06.717Z,20.30
2018-03-04T13:25:33.034Z,20.60
2018-03-04T13:27:59.431Z,18.50
2018-03-04T13:30:27.506Z,19.00
2018-03-04T13:32:53.919Z,19.00
2018-03-04T13:35:20.302Z,20.00
2018-03-04T13:37:47.660Z,19.60
2018-03-04T13:40:14.027Z,21.20
2018-03-04T13:42:40.483Z,19.20
2018-03-04T13:45:07.593Z,19.80
2018-03-04T13:47:33.908Z,19.80
2018-03-04T13:50:00.205Z,20.30
2018-03-04T13:52:27.427Z,21.20
2018-03-04T13:54:53.736Z,21.10
2018-03-04T13:57:20.081Z,21.00
2018-03-04T13:59:46.361Z,21.50
2018-03-04T14:02:13.408Z,19.70
2018-03-04T14:04:40.563Z,19.80
2018-03-04T14:07:07.955Z,19.80
2018-03-04T14:09:34.328Z,18.70
2018-03-04T14:12:00.817Z,17.90
2018-03-04T14:14:27.153Z,17.90
2018-03-04T14:16:53.596Z,17.90
2018-03-04T14:19:20.922Z,19.50
2018-03-04T14:21:49.520Z,19.40
2018-03-04T14:24:15.872Z,18.00
2018-03-04T14:26:42.280Z,18.80
2018-03-04T14:29:09.657Z,18.20
2018-03-04T14:31:36.039Z,18.80
2018-03-04T14:34:03.152Z,19.70
2018-03-04T14:36:29.542Z,19.70
2018-03-04T14:38:55.916Z,19.80
2018-03-04T14:41:22.332Z,18.50
2018-03-04T14:43:48.592Z,18.20
2018-03-04T14:46:14.954Z,19.30
2018-03-04T14:48:41.308Z,18.50
2018-03-04T14:51:07.728Z,16.90
2018-03-04T14:53:34.125Z,18.70
2018-03-04T14:56:01.507Z,19.50
2018-03-04T14:58:28.955Z,19.00
2018-03-04T15:00:56.033Z,15.20
2018-03-04T15:03:23.352Z,15.10
2018-03-04T15:05:54.488Z,16.40
2018-03-04T15:08:21.794Z,16.40
2018-03-04T15:10:48.208Z,16.80
2018-03-04T15:13:14.553Z,17.90
2018-03-04T15:15:40.909Z,16.10
2018-03-04T15:18:12.679Z,15.60
2018-03-04T15:20:39.128Z,16.80
2018-03-04T15:23:05.505Z,17.00
2018-03-04T15:25:32.894Z,15.80
2018-03-04T15:27:59.186Z,14.70
2018-03-04T15:30:25.604Z,15.20
2018-03-04T15:32:52.686Z,14.70
2018-03-04T15:35:19.061Z,14.70
2018-03-04T15:37:45.446Z,13.80
2018-03-04T15:40:11.846Z,13.20
2018-03-04T15:42:38.927Z,10.20
2018-03-04T15:45:05.264Z,10.10
2018-03-04T15:47:31.583Z,9.00
2018-03-04T15:49:57.940Z,8.20
2018-03-04T15:52:24.285Z,7.70
2018-03-04T15:54:50.700Z,7.20
2018-03-04T15:57:17.015Z,7.10
2018-03-04T15:59:43.375Z,6.80
2018-03-04T16:02:10.425Z,6.40
2018-03-04T16:04:36.753Z,6.30
2018-03-04T16:07:03.130Z,6.20
2018-03-04T16:09:31.264Z,5.70
2018-03-04T16:11:57.593Z,5.70
2018-03-04T16:14:24.817Z,5.30
2018-03-04T16:16:51.162Z,5.20
2018-03-04T16:19:17.532Z,5.10
2018-03-04T16:21:45.206Z,5.10
2018-03-04T16:24:13.685Z,5.00
2018-03-04T16:26:41.022Z,4.60
2018-03-04T16:29:08.369Z,4.60
2018-03-04T16:31:35.661Z,4.70
2018-03-04T16:34:02.750Z,4.40
2018-03-04T16:36:29.063Z,4.30
2018-03-04T16:38:55.433Z,4.20
2018-03-04T16:41:21.823Z,4.10
2018-03-04T16:43:48.292Z,4.10
2018-03-04T16:46:15.673Z,4.00
2018-03-04T16:48:42.775Z,3.80
2018-03-04T16:51:09.112Z,3.80
2018-03-04T16:53:35.434Z,3.80
2018-03-04T16:56:01.747Z,3.60
2018-03-04T16:58:29.185Z,3.50
2018-03-04T17:00:55.471Z,3.30
2018-03-04T17:03:21.817Z,3.30
2018-03-04T17:05:48.194Z,3.10
2018-03-04T17:08:25.996Z,3.00
2018-03-04T17:10:52.325Z,2.90
2018-03-04T17:13:20.445Z,2.70
2018-03-04T17:15:46.775Z,2.70
2018-03-04T17:18:13.105Z,2.70
2018-03-04T17:20:40.241Z,2.60
2018-03-04T17:23:06.601Z,2.50
2018-03-04T17:25:32.998Z,2.50
2018-03-04T17:27:59.372Z,2.50
2018-03-04T17:30:26.496Z,2.40
2018-03-04T17:32:52.816Z,2.40
2018-03-04T17:35:19.147Z,2.30
2018-03-04T17:37:45.482Z,2.30
2018-03-04T17:40:12.802Z,2.20
2018-03-04T17:42:39.917Z,2.30
2018-03-04T17:45:06.332Z,2.20
2018-03-04T17:47:32.635Z,2.20
2018-03-04T17:49:58.971Z,2.20
2018-03-04T17:52:25.316Z,2.20
2018-03-04T17:54:51.870Z,2.10
2018-03-04T17:57:18.596Z,2.10
2018-03-04T17:59:44.884Z,2.10
2018-03-04T18:02:11.929Z,2.10
2018-03-04T18:04:39.803Z,2.00
2018-03-04T18:07:07.999Z,2.00
2018-03-04T18:09:34.328Z,1.90
2018-03-04T18:12:00.696Z,2.00
2018-03-04T18:14:26.982Z,1.90
2018-03-04T18:16:53.318Z,1.80
2018-03-04T18:19:19.638Z,1.80
2018-03-04T18:21:46.725Z,1.80
2018-03-04T18:24:13.080Z,1.80
2018-03-04T18:26:40.187Z,1.60
2018-03-04T18:29:06.613Z,1.60
2018-03-04T18:31:32.998Z,1.60
2018-03-04T18:33:59.387Z,1.60
2018-03-04T18:36:25.725Z,1.60
2018-03-04T18:38:52.121Z,1.50
2018-03-04T18:41:19.199Z,1.50
2018-03-04T18:43:45.603Z,1.40
2018-03-04T18:46:12.048Z,1.40
2018-03-04T18:48:40.144Z,1.40
2018-03-04T18:51:07.331Z,1.40
2018-03-04T18:53:34.654Z,1.30
2018-03-04T18:56:01.010Z,1.30
2018-03-04T18:58:28.146Z,1.30
2018-03-04T19:00:54.532Z,1.30
2018-03-04T19:03:21.642Z,1.40
2018-03-04T19:05:48.060Z,1.40
2018-03-04T19:08:14.378Z,1.40
2018-03-04T19:10:40.707Z,1.30
2018-03-04T19:13:07.041Z,1.30
2018-03-04T19:15:33.396Z,1.30
2018-03-04T19:17:59.677Z,1.30
2018-03-04T19:20:26.051Z,1.30
2018-03-04T19:22:52.753Z,1.30
2018-03-04T19:25:19.120Z,1.30
2018-03-04T19:27:45.506Z,1.20
2018-03-04T19:30:12.590Z,1.10
2018-03-04T19:32:38.977Z,1.10
2018-03-04T19:35:06.142Z,1.10
2018-03-04T19:37:32.545Z,1.10
2018-03-04T19:39:58.930Z,1.10
2018-03-04T19:42:25.316Z,1.10
2018-03-04T19:44:51.754Z,1.10
2018-03-04T19:47:18.163Z,1.10
2018-03-04T19:49:44.649Z,1.10
2018-03-04T19:52:11.062Z,1.10
2018-03-04T19:54:38.169Z,1.10
2018-03-04T19:57:04.721Z,1.10
2018-03-04T19:59:31.052Z,1.20
2018-03-04T20:01:57.365Z,1.10
2018-03-04T20:04:23.726Z,1.20
2018-03-04T20:06:50.231Z,1.10
2018-03-04T20:09:16.664Z,1.10
2018-03-04T20:11:42.994Z,1.10
2018-03-04T20:14:10.136Z,1.10
2018-03-04T20:16:36.440Z,1.10
2018-03-04T20:19:03.520Z,1.00
2018-03-04T20:21:30.908Z,1.00
2018-03-04T20:24:04.275Z,0.90
2018-03-04T20:26:30.635Z,0.90
2018-03-04T20:28:56.889Z,0.80
2018-03-04T20:31:23.228Z,0.80
2018-03-04T20:33:49.610Z,0.70
2018-03-04T20:36:15.983Z,0.70
2018-03-04T20:38:43.042Z,0.70
2018-03-04T20:41:10.071Z,0.70
2018-03-04T20:43:36.364Z,0.70
2018-03-04T20:46:02.662Z,0.70
2018-03-04T20:48:28.934Z,0.80
2018-03-04T20:50:55.244Z,0.80
2018-03-04T20:53:21.550Z,0.70
2018-03-04T20:55:48.628Z,0.70
2018-03-04T20:58:15.031Z,0.70
2018-03-04T21:00:41.306Z,0.70
2018-03-04T21:03:07.673Z,0.80
2018-03-04T21:05:34.689Z,0.70
2018-03-04T21:08:05.901Z,0.70
2018-03-04T21:10:32.199Z,0.70
2018-03-04T21:13:07.750Z,0.70
2018-03-04T21:15:34.793Z,0.70
2018-03-04T21:18:01.782Z,0.70
2018-03-04T21:20:28.051Z,0.60
2018-03-04T21:23:01.218Z,0.70
2018-03-04T21:25:27.642Z,0.70
2018-03-04T21:27:53.924Z,0.70
2018-03-04T21:30:21.043Z,0.60
2018-03-04T21:32:47.358Z,0.60
2018-03-04T21:35:13.695Z,0.70
2018-03-04T21:37:39.942Z,0.70
2018-03-04T21:40:06.249Z,0.70
2018-03-04T21:42:32.538Z,0.80
2018-03-04T21:44:58.813Z,0.80
2018-03-04T21:47:25.186Z,0.80
2018-03-04T21:49:51.483Z,0.90
2018-03-04T21:52:17.777Z,0.90
2018-03-04T21:54:44.027Z,1.00
2018-03-04T21:57:10.415Z,1.10
2018-03-04T21:59:37.490Z,1.00
2018-03-04T22:02:03.788Z,1.00
2018-03-04T22:04:30.069Z,1.00
2018-03-04T22:06:56.338Z,0.90
2018-03-04T22:09:22.651Z,0.90
2018-03-04T22:11:48.936Z,0.90
2018-03-04T22:14:15.233Z,0.90
2018-03-04T22:16:42.222Z,0.90
2018-03-04T22:19:08.476Z,0.80
2018-03-04T22:21:34.728Z,0.90
2018-03-04T22:24:00.997Z,0.90
2018-03-04T22:26:27.302Z,0.90
2018-03-04T22:28:53.531Z,0.90
2018-03-04T22:31:19.809Z,0.90
2018-03-04T22:33:46.065Z,0.90
2018-03-04T22:36:12.329Z,0.90
2018-03-04T22:38:39.369Z,0.90
2018-03-04T22:41:05.649Z,0.90
2018-03-04T22:43:31.957Z,0.90
2018-03-04T22:45:58.245Z,0.80
2018-03-04T22:48:24.496Z,0.80
2018-03-04T22:50:51.500Z,0.80
2018-03-04T22:53:17.751Z,0.70
2018-03-04T22:55:44.043Z,0.80
2018-03-04T22:58:10.309Z,0.70
2018-03-04T23:00:36.583Z,0.60
2018-03-04T23:03:02.931Z,0.60
2018-03-04T23:05:29.199Z,0.60
2018-03-04T23:07:55.513Z,0.50
2018-03-04T23:10:21.790Z,0.50
2018-03-04T23:12:48.805Z,0.50
2018-03-04T23:15:15.096Z,0.40
2018-03-04T23:17:41.397Z,0.50
2018-03-04T23:20:08.444Z,0.40
2018-03-04T23:22:35.462Z,0.40
2018-03-04T23:25:01.760Z,0.40
2018-03-04T23:27:28.073Z,0.40
2018-03-04T23:29:54.334Z,0.40
2018-03-04T23:32:20.616Z,0.40
2018-03-04T23:34:47.584Z,0.40
2018-03-04T23:37:13.883Z,0.40
2018-03-04T23:39:40.990Z,0.40
2018-03-04T23:42:07.287Z,0.30
2018-03-04T23:44:33.527Z,0.30
2018-03-04T23:46:59.792Z,0.30
2018-03-04T23:49:26.023Z,0.30
2018-03-04T23:51:53.227Z,0.30
2018-03-04T23:54:19.467Z,0.30
2018-03-04T23:56:45.715Z,0.30
2018-03-04T23:59:12.003Z,0.30
